Calumet, MN (55716)

11:47 AM CST on November 24, 2014 (GMT -0600)
Grand Rapids-Itasca County-Newstrom Field | Change Station
CLOSE
Current Station
Airport
Location: Grand Rapids,
Elevation: 1355 ft
Nearby Weather Stations

Elev 1355 ft 47.21 °N, 93.51 °W | Updated 12 minutes ago

Overcast
Overcast
18 °F
Feels Like 0 °F
N
24
Wind Variable Wind from NW
Gusts 29 mph

Today
High -- | Low -- °F
--% Chance of Precip.
Yesterday
High -- | Low -- °F
Precip. -- in
7:30 AM 4:29 PM
Waxing Crescent, 6% visible
Pressure 29.46 in
Visibility 10.0 miles
Clouds Overcast 1600 ft
Windchill 0 °F
Dew Point 10 °F
Humidity 73%
Rainfall 0.00 in
Snow Depth Not available.
UV 1 out of 12
Pollen .10 out of 12
Air Quality Not available.
Flu Activity Not available.
METAR KGPZ 241735Z AUTO 32021G25KT 10SM OVC016 M08/M12 A2946 RMK AO1

More Conditions Fewer Conditions

Pressure 29.46 in
Visibility 10.0 miles
Clouds Overcast 1600 ft
Windchill 0 °F
Dew Point 10 °F
Humidity 73%
Rainfall 0.00 in
Snow Depth Not available.
UV 1 out of 12
Pollen .10 out of 12
Air Quality Not available.
Flu Activity Not available.
METAR KGPZ 241735Z AUTO 32021G25KT 10SM OVC016 M08/M12 A2946 RMK AO1

More Conditions Fewer Conditions

10-Day Weather Forecast

Almanac

Astronomy

Nov. 24, 2014 Rise Set
Actual Time
Civil Twilight
Nautical Twilight
Astronomical Twilight
Moon
Length of Visible Light
Length of Day
Tomorrow will be .
, % of the Moon is Illuminated

Today's Extremes

State Highs State Lows

Community

WunderPhotos

Upload Photos

1,773,379 photos uploaded!

WunderBlogs® & News

Nearby

Air Quality

  Air Quality AQ Index Pollutant
Not available.

Snow Depth

Station Depth Elevation

Earthquake Activity

City Distance Mag. Time & Date
Minimum magnitude displayed is 2.5.

Coastal Water Temperatures

Place Temperature

Nearby Weather Stations